Havana, Cuba
Current Conditions -  °F | °C
As of 3:55 PM on Friday 28 Nov 2014 (Local Time) from MUHA Reporting Station
Scattered Clouds Scattered Clouds  
Wind Chill: 22°   Ceiling: Unl
Heat Index: 22°   Visibility: 6mi
Dew Point: 11°   Wind: 17mph
Humidity: 50%   Direction: 40°NE
Pressure: 30.12"   Gusts: NA
Location:  23.12°N, 82.39°W
Report Text: MUHA 281955Z 04015KT 9000 SCT030 22/11 Q1020
Loading
Personal Weather Stations






























Interactive Weather Map New forecast layout! Learn more

10-Day Weather Forecast

Advertisements
Track Severe Weather on mobile